Terminal Aerodrome Forecast
Issued by NWS

Home | Current Version | Previous Version | Text Only | Print | Product List | Glossary On
Versions: 1 2 3 4 5 6 7 8 9 10 11 12 13 14 15 16 17 18 19 20
000
FTUS41 KCLE 231304 AAA
TAFFDY
TAF AMD
KFDY 231304Z 2313/2412 03014KT 6SM -RA BR OVC004
      TEMPO 2314/2318 3SM BR OVC002
     FM232000 02007KT 2SM BR OVC003
     FM240800 32006KT 1/2SM -DZ FG OVC003
     FM241000 31005KT 1 1/2SM BR OVC003=

USA.gov is the U.S. government's official web portal to all federal, state and local government web resources and services.